Time;durP1;ratioP1;P1;durP2;ratioP2;P2;SDS_P1;SDS_P2;PMS_P1;PMS_P2;Temp;Humidity;BMP_temperature;BMP_pressure;BME280_temperature;BME280_humidity;BME280_pressure;Samples;Min_cycle;Max_cycle;Signal;HPM_P1;HPM_P2
2021/11/21 00:01:24;;;;;;;23.43;16.17;;;10.00;99.90;;;;;;5005177;28;20398;-73
2021/11/21 00:03:51;;;;;;;21.00;16.30;;;10.00;99.90;;;;;;5005316;28;20298;-73
2021/11/21 00:06:20;;;;;;;20.77;15.27;;;10.00;99.90;;;;;;5007616;28;20284;-73
2021/11/21 00:08:47;;;;;;;22.73;16.40;;;10.00;99.90;;;;;;5008956;28;20243;-73
2021/11/21 00:11:17;;;;;;;19.47;15.50;;;10.00;99.90;;;;;;5008844;28;20240;-73
2021/11/21 00:13:49;;;;;;;19.67;15.67;;;10.00;99.90;;;;;;5009337;28;20626;-73
2021/11/21 00:16:17;;;;;;;20.63;15.80;;;10.00;99.90;;;;;;5008665;28;20197;-73
2021/11/21 00:18:44;;;;;;;20.33;15.93;;;10.00;99.90;;;;;;5008330;28;20776;-73
2021/11/21 00:21:11;;;;;;;18.83;14.87;;;10.00;99.90;;;;;;5008226;28;20706;-73
2021/11/21 00:23:44;;;;;;;19.27;15.20;;;10.00;99.90;;;;;;5008093;28;20210;-73
2021/11/21 00:26:19;;;;;;;19.33;15.10;;;10.00;99.90;;;;;;5008195;28;20193;-73
2021/11/21 00:28:49;;;;;;;19.03;14.23;;;10.00;99.90;;;;;;5008501;28;20284;-73
2021/11/21 00:31:18;;;;;;;18.33;14.63;;;10.00;99.90;;;;;;5008467;28;20240;-73
2021/11/21 00:33:49;;;;;;;19.20;14.63;;;10.00;99.90;;;;;;5008192;28;20578;-73
2021/11/21 00:36:18;;;;;;;17.17;14.03;;;9.90;99.90;;;;;;5008459;28;20316;-73
2021/11/21 00:38:47;;;;;;;19.87;14.20;;;10.00;99.90;;;;;;5008310;28;20216;-73
2021/11/21 00:41:16;;;;;;;18.00;14.67;;;10.00;99.90;;;;;;5008300;28;20312;-73
2021/11/21 00:43:43;;;;;;;17.93;14.07;;;9.90;99.90;;;;;;5008491;28;20218;-73
2021/11/21 00:46:13;;;;;;;17.50;13.97;;;9.90;99.90;;;;;;5008132;28;20252;-73
2021/11/21 00:48:42;;;;;;;18.83;14.43;;;9.90;99.90;;;;;;5008299;28;20267;-73
2021/11/21 00:51:09;;;;;;;21.60;14.43;;;9.90;99.90;;;;;;5007882;28;20335;-73
2021/11/21 00:53:39;;;;;;;16.57;13.20;;;9.90;99.90;;;;;;5008197;28;20213;-73
2021/11/21 00:56:08;;;;;;;15.33;12.77;;;9.90;99.90;;;;;;5008225;28;20241;-73
2021/11/21 00:58:38;;;;;;;16.83;13.53;;;9.90;99.90;;;;;;5008223;28;20210;-73
2021/11/21 01:01:06;;;;;;;17.40;12.87;;;9.90;99.90;;;;;;5007798;28;20333;-73
2021/11/21 01:03:33;;;;;;;16.60;13.07;;;9.80;99.90;;;;;;5007944;28;20715;-73
2021/11/21 01:06:10;;;;;;;16.53;12.80;;;9.80;99.90;;;;;;5008097;28;20212;-73
2021/11/21 01:08:37;;;;;;;16.40;11.87;;;9.80;99.90;;;;;;5008155;28;20204;-73
2021/11/21 01:11:09;;;;;;;17.87;12.70;;;9.80;99.90;;;;;;5007934;28;20241;-73
2021/11/21 01:13:38;;;;;;;15.00;12.33;;;9.80;99.90;;;;;;5007906;28;20648;-73
2021/11/21 01:16:16;;;;;;;;;;;;;;;;;;;;;
2021/11/21 01:18:51;;;;;;;17.13;13.03;;;9.80;99.90;;;;;;5007248;28;20739;-73
2021/11/21 01:21:20;;;;;;;16.17;13.30;;;9.80;99.90;;;;;;5007678;28;20255;-73
2021/11/21 01:23:47;;;;;;;15.17;12.80;;;9.80;99.90;;;;;;5007642;28;20213;-73
2021/11/21 01:26:15;;;;;;;15.93;13.37;;;9.80;99.90;;;;;;5008034;28;20254;-73
2021/11/21 01:28:43;;;;;;;15.17;12.33;;;9.80;99.90;;;;;;5008026;28;20210;-73
2021/11/21 01:31:12;;;;;;;16.37;13.27;;;9.80;99.90;;;;;;5007539;28;20790;-73
2021/11/21 01:33:39;;;;;;;16.03;13.83;;;9.80;99.90;;;;;;5007952;28;20233;-73
2021/11/21 01:36:07;;;;;;;16.73;13.77;;;9.80;99.90;;;;;;5007199;28;20275;-73
2021/11/21 01:38:35;;;;;;;14.93;13.23;;;9.80;99.90;;;;;;5007729;28;20231;-73
2021/11/21 01:41:02;;;;;;;16.57;13.07;;;9.70;99.90;;;;;;5007631;28;20243;-73
2021/11/21 01:43:29;;;;;;;19.60;13.30;;;9.70;99.90;;;;;;5007757;28;20300;-73
2021/11/21 01:45:57;;;;;;;15.40;13.20;;;9.80;99.90;;;;;;5007569;28;20240;-73
2021/11/21 01:48:24;;;;;;;16.77;12.83;;;9.70;99.90;;;;;;5007491;28;20210;-73
2021/11/21 01:50:59;;;;;;;17.70;14.70;;;9.70;99.90;;;;;;5007580;28;20622;-73
2021/11/21 01:53:26;;;;;;;17.17;13.77;;;9.70;99.90;;;;;;5007177;28;20288;-73
2021/11/21 01:55:53;;;;;;;16.07;13.93;;;9.70;99.90;;;;;;5007178;28;20706;-73
2021/11/21 01:58:20;;;;;;;16.47;13.20;;;9.70;99.90;;;;;;5007562;28;20205;-73
2021/11/21 02:00:51;;;;;;;19.67;14.83;;;9.70;99.90;;;;;;5007072;28;20866;-73
2021/11/21 02:03:19;;;;;;;15.87;13.07;;;9.70;99.90;;;;;;5007462;28;20228;-73
2021/11/21 02:05:47;;;;;;;14.73;12.60;;;9.70;99.90;;;;;;5007449;28;20237;-73
2021/11/21 02:08:17;;;;;;;15.90;12.97;;;9.70;99.90;;;;;;5007255;28;20301;-73
2021/11/21 02:10:46;;;;;;;16.97;14.07;;;9.70;99.90;;;;;;5007647;28;20214;-73
2021/11/21 02:13:13;;;;;;;17.10;13.97;;;9.70;99.90;;;;;;5007260;28;20221;-73
2021/11/21 02:15:44;;;;;;;17.87;13.47;;;9.70;99.90;;;;;;5006571;28;20300;-73
2021/11/21 02:18:14;;;;;;;17.73;14.07;;;9.60;99.90;;;;;;5006770;28;20244;-73
2021/11/21 02:20:50;;;;;;;19.10;14.93;;;9.60;99.90;;;;;;5007197;28;20292;-73
2021/11/21 02:23:21;;;;;;;17.77;14.13;;;9.60;99.90;;;;;;5006699;28;20675;-73
2021/11/21 02:25:51;;;;;;;15.37;13.30;;;9.60;99.90;;;;;;5007292;28;20233;-73
2021/11/21 02:28:18;;;;;;;20.13;14.50;;;9.60;99.90;;;;;;5006234;28;20214;-73
2021/11/21 02:30:45;;;;;;;17.10;13.50;;;9.60;99.90;;;;;;5006693;28;20304;-73
2021/11/21 02:33:16;;;;;;;15.33;13.53;;;9.60;99.90;;;;;;5006466;28;20229;-73
2021/11/21 02:35:46;;;;;;;17.17;13.73;;;9.60;99.90;;;;;;5007065;28;20675;-73
2021/11/21 02:38:24;;;;;;;19.60;15.13;;;9.60;99.90;;;;;;5007050;28;20237;-73
2021/11/21 02:40:52;;;;;;;17.43;14.90;;;9.60;99.90;;;;;;5006992;28;20202;-73
2021/11/21 02:43:20;;;;;;;18.33;14.13;;;9.60;99.90;;;;;;5006359;28;20692;-73
2021/11/21 02:45:48;;;;;;;19.20;14.83;;;9.60;99.90;;;;;;5006908;28;20209;-73
2021/11/21 02:48:16;;;;;;;19.43;14.77;;;9.60;99.90;;;;;;5006760;28;20212;-73
2021/11/21 02:50:43;;;;;;;16.70;13.87;;;9.60;99.90;;;;;;5006667;28;20683;-73
2021/11/21 02:53:16;;;;;;;18.63;14.37;;;9.60;99.90;;;;;;5006399;28;20381;-73
2021/11/21 02:55:43;;;;;;;23.10;15.27;;;9.50;99.90;;;;;;5006417;28;20281;-73
2021/11/21 02:58:11;;;;;;;18.67;14.90;;;9.50;99.90;;;;;;5006502;28;20224;-73
2021/11/21 03:00:41;;;;;;;18.77;14.63;;;9.60;99.90;;;;;;5006524;28;20260;-73
2021/11/21 03:03:08;;;;;;;20.03;15.60;;;9.50;99.90;;;;;;5007608;28;20793;-73
2021/11/21 03:05:35;;;;;;;19.23;15.20;;;9.50;99.90;;;;;;5013176;28;20248;-73
2021/11/21 03:08:03;;;;;;;19.87;15.80;;;9.50;99.90;;;;;;5014860;28;20249;-73
2021/11/21 03:10:33;;;;;;;20.63;15.27;;;9.50;99.90;;;;;;5025932;28;20300;-73
2021/11/21 03:13:05;;;;;;;19.67;15.57;;;9.50;99.90;;;;;;5025502;28;20604;-73
2021/11/21 03:15:33;;;;;;;22.27;16.37;;;9.60;99.90;;;;;;5023550;28;20224;-74
2021/11/21 03:18:01;;;;;;;20.73;15.20;;;9.50;99.90;;;;;;5025860;28;20311;-73
2021/11/21 03:20:34;;;;;;;21.27;15.97;;;9.50;99.90;;;;;;5025324;28;20296;-75
2021/11/21 03:23:06;;;;;;;19.23;15.67;;;9.50;99.90;;;;;;5025493;28;20224;-75
2021/11/21 03:25:36;;;;;;;20.00;15.73;;;9.50;99.90;;;;;;5025844;28;20197;-77
2021/11/21 03:28:04;;;;;;;21.87;15.90;;;9.50;99.90;;;;;;5025880;28;20209;-77
2021/11/21 03:30:31;;;;;;;23.93;15.73;;;9.50;99.90;;;;;;5025417;28;20223;-77
2021/11/21 03:32:58;;;;;;;20.40;16.60;;;9.50;99.90;;;;;;5025714;28;20237;-77
2021/11/21 03:35:25;;;;;;;21.43;16.30;;;9.40;99.90;;;;;;5025591;28;20235;-77
2021/11/21 03:37:52;;;;;;;20.70;16.23;;;9.40;99.90;;;;;;5025548;28;20677;-76
2021/11/21 03:40:20;;;;;;;21.17;16.00;;;9.40;99.90;;;;;;5024860;28;20667;-76
2021/11/21 03:42:48;;;;;;;23.43;17.27;;;9.50;99.90;;;;;;5025260;28;20248;-76
2021/11/21 03:45:16;;;;;;;21.03;16.47;;;9.40;99.90;;;;;;5025726;28;20236;-76
2021/11/21 03:47:43;;;;;;;23.30;17.57;;;9.40;99.90;;;;;;5025885;28;20682;-76
2021/11/21 03:50:12;;;;;;;21.97;16.73;;;9.40;99.90;;;;;;5025430;28;20616;-76
2021/11/21 03:52:40;;;;;;;25.30;17.00;;;9.40;99.90;;;;;;5025250;28;20777;-76
2021/11/21 03:55:08;;;;;;;23.20;16.80;;;9.40;99.90;;;;;;5025480;28;20243;-76
2021/11/21 03:57:35;;;;;;;25.27;17.00;;;9.40;99.90;;;;;;5025507;28;20308;-77
2021/11/21 04:00:06;;;;;;;24.80;17.50;;;9.40;99.90;;;;;;5025200;28;20711;-77
2021/11/21 04:02:33;;;;;;;24.57;17.37;;;9.40;99.90;;;;;;5025212;28;20240;-77
2021/11/21 04:05:01;;;;;;;23.20;16.27;;;9.40;99.90;;;;;;5025499;28;20224;-75
2021/11/21 04:07:28;;;;;;;21.67;16.37;;;9.30;99.90;;;;;;5025277;28;20252;-75
2021/11/21 04:09:55;;;;;;;24.17;16.93;;;9.30;99.90;;;;;;5025095;28;20208;-75
2021/11/21 04:12:22;;;;;;;19.20;15.37;;;9.40;99.90;;;;;;5025133;28;20668;-75
2021/11/21 04:14:49;;;;;;;22.07;16.77;;;9.30;99.90;;;;;;5025497;28;20292;-75
2021/11/21 04:17:17;;;;;;;23.23;16.40;;;9.30;99.90;;;;;;5024815;28;20316;-75
2021/11/21 04:19:44;;;;;;;21.50;15.80;;;9.30;99.90;;;;;;5025459;28;20259;-75
2021/11/21 04:22:11;;;;;;;23.10;16.27;;;9.40;99.90;;;;;;5025083;28;20323;-75
2021/11/21 04:24:38;;;;;;;26.53;16.70;;;9.30;99.90;;;;;;5025124;28;20208;-75
2021/11/21 04:27:08;;;;;;;23.40;16.03;;;9.30;99.90;;;;;;5024932;28;20209;-75
2021/11/21 04:29:35;;;;;;;21.37;15.90;;;9.30;99.90;;;;;;5025131;28;20297;-75
2021/11/21 04:32:02;;;;;;;24.50;16.70;;;9.20;99.90;;;;;;5024822;28;20225;-75
2021/11/21 04:34:30;;;;;;;23.60;17.07;;;9.20;99.90;;;;;;5024987;28;20229;-75
2021/11/21 04:36:59;;;;;;;23.70;16.63;;;9.20;99.90;;;;;;5024861;28;20785;-77
2021/11/21 04:39:26;;;;;;;24.60;16.77;;;9.30;99.90;;;;;;5025054;28;20261;-75
2021/11/21 04:41:55;;;;;;;25.20;16.23;;;9.30;99.90;;;;;;5024729;28;20704;-75
2021/11/21 04:44:23;;;;;;;22.00;15.73;;;9.20;99.90;;;;;;5024745;28;20261;-76
2021/11/21 04:46:50;;;;;;;21.87;17.27;;;9.20;99.90;;;;;;5025099;28;20216;-76
2021/11/21 04:49:18;;;;;;;22.80;16.67;;;9.20;99.90;;;;;;5024981;28;20240;-76
2021/11/21 04:51:48;;;;;;;21.57;16.43;;;9.20;99.90;;;;;;5024730;28;20205;-77
2021/11/21 04:54:17;;;;;;;23.70;16.37;;;9.20;99.90;;;;;;5028359;28;20237;-76
2021/11/21 04:56:47;;;;;;;21.67;15.93;;;9.10;99.90;;;;;;5028509;28;20228;-77
2021/11/21 04:59:15;;;;;;;22.63;16.27;;;9.20;99.90;;;;;;5028306;28;20229;-75
2021/11/21 05:01:43;;;;;;;23.27;16.80;;;9.10;99.90;;;;;;5027871;28;20319;-75
2021/11/21 05:04:10;;;;;;;22.00;16.67;;;9.10;99.90;;;;;;5027800;28;20285;-75
2021/11/21 05:06:37;;;;;;;22.47;16.90;;;9.10;99.90;;;;;;5028017;28;20248;-75
2021/11/21 05:09:06;;;;;;;23.20;15.47;;;9.10;99.90;;;;;;5027701;28;20296;-75
2021/11/21 05:11:34;;;;;;;23.77;16.13;;;9.10;99.90;;;;;;5028051;28;20579;-77
2021/11/21 05:14:03;;;;;;;22.83;16.27;;;9.00;99.90;;;;;;5027693;28;20241;-77
2021/11/21 05:16:29;;;;;;;23.07;15.67;;;9.00;99.90;;;;;;5027666;28;20220;-77
2021/11/21 05:18:56;;;;;;;21.33;15.90;;;9.00;99.90;;;;;;5028100;28;20953;-77
2021/11/21 05:21:23;;;;;;;21.63;16.13;;;9.00;99.90;;;;;;5027352;28;20240;-75
2021/11/21 05:23:50;;;;;;;21.57;15.90;;;9.00;99.90;;;;;;5027849;28;20287;-75
2021/11/21 05:26:18;;;;;;;22.53;15.80;;;9.00;99.90;;;;;;5027748;28;20284;-75
2021/11/21 05:28:45;;;;;;;21.60;14.93;;;9.00;99.90;;;;;;5027496;28;20208;-75
2021/11/21 05:31:12;;;;;;;19.97;14.37;;;9.00;99.90;;;;;;5027536;28;20293;-75
2021/11/21 05:33:39;;;;;;;19.77;14.27;;;9.00;99.90;;;;;;5027406;28;20245;-76
2021/11/21 05:36:06;;;;;;;21.67;14.83;;;9.10;99.90;;;;;;5027476;28;20589;-76
2021/11/21 05:38:33;;;;;;;19.77;14.77;;;9.00;99.90;;;;;;5027730;28;20312;-76
2021/11/21 05:41:00;;;;;;;20.87;14.67;;;9.00;99.90;;;;;;5027145;28;20240;-76
2021/11/21 05:43:28;;;;;;;19.83;14.37;;;9.00;99.90;;;;;;5027472;28;20237;-77
2021/11/21 05:45:55;;;;;;;19.93;15.30;;;9.00;99.90;;;;;;5027860;28;20209;-78
2021/11/21 05:48:22;;;;;;;19.30;13.83;;;9.00;99.90;;;;;;5026950;28;20209;-78
2021/11/21 05:50:49;;;;;;;19.53;13.93;;;9.00;99.90;;;;;;5027186;28;20301;-78
2021/11/21 05:53:16;;;;;;;20.57;14.63;;;9.00;99.90;;;;;;5027194;28;20268;-78
2021/11/21 05:55:43;;;;;;;19.67;14.20;;;9.00;99.90;;;;;;5027313;28;20332;-74
2021/11/21 05:58:10;;;;;;;19.20;13.30;;;9.00;99.90;;;;;;5026753;28;20722;-78
2021/11/21 06:00:39;;;;;;;19.30;13.57;;;9.00;99.90;;;;;;5026915;28;20213;-77
2021/11/21 06:03:06;;;;;;;19.30;13.70;;;9.00;99.90;;;;;;5026761;28;20331;-77
2021/11/21 06:05:32;;;;;;;16.70;12.90;;;9.00;99.90;;;;;;5027406;28;20303;-77
2021/11/21 06:08:04;;;;;;;19.20;13.73;;;8.90;99.90;;;;;;5027150;28;20320;-77
2021/11/21 06:10:31;;;;;;;19.13;13.60;;;8.90;99.90;;;;;;5026994;28;20193;-77
2021/11/21 06:12:58;;;;;;;18.00;13.00;;;8.90;99.90;;;;;;5027023;28;20323;-77
2021/11/21 06:15:24;;;;;;;17.93;12.90;;;8.90;99.90;;;;;;5027486;28;20353;-78
2021/11/21 06:17:53;;;;;;;17.50;12.43;;;8.90;99.90;;;;;;5026844;28;20256;-77
2021/11/21 06:20:20;;;;;;;18.67;13.33;;;8.90;99.90;;;;;;5027035;28;20281;-77
2021/11/21 06:22:47;;;;;;;18.17;12.67;;;8.90;99.90;;;;;;5027020;28;20220;-77
2021/11/21 06:25:14;;;;;;;17.93;13.37;;;8.90;99.90;;;;;;5026842;28;20296;-77
2021/11/21 06:27:44;;;;;;;17.67;12.50;;;8.90;99.90;;;;;;5026672;28;20252;-77
2021/11/21 06:30:11;;;;;;;19.50;13.87;;;8.90;99.90;;;;;;5026550;28;20252;-77
2021/11/21 06:32:40;;;;;;;19.63;13.73;;;8.90;99.90;;;;;;5026505;28;20261;-76
2021/11/21 06:35:10;;;;;;;20.20;14.63;;;8.90;99.90;;;;;;5026599;28;20257;-76
2021/11/21 06:37:37;;;;;;;17.63;13.37;;;8.90;99.90;;;;;;5026787;28;20293;-76
2021/11/21 06:40:05;;;;;;;16.83;13.17;;;8.90;99.90;;;;;;5026267;28;20696;-76
2021/11/21 06:42:36;;;;;;;19.20;13.23;;;8.80;99.90;;;;;;5026640;28;20292;-76
2021/11/21 06:45:05;;;;;;;19.30;12.83;;;8.80;99.90;;;;;;5026135;28;20193;-76
2021/11/21 06:47:33;;;;;;;18.87;13.57;;;8.80;99.90;;;;;;5026732;28;20238;-76
2021/11/21 06:50:01;;;;;;;19.10;13.40;;;8.80;99.90;;;;;;5026464;28;20212;-76
2021/11/21 06:52:33;;;;;;;17.77;12.13;;;8.80;99.90;;;;;;5026294;28;20673;-77
2021/11/21 06:55:01;;;;;;;17.33;12.43;;;8.80;99.90;;;;;;5026356;28;20710;-76
2021/11/21 06:57:35;;;;;;;19.10;13.00;;;8.80;99.90;;;;;;5026453;28;20240;-75
2021/11/21 07:00:05;;;;;;;15.80;12.23;;;8.80;99.90;;;;;;5026432;28;20298;-75
2021/11/21 07:02:35;;;;;;;16.77;12.37;;;8.90;99.90;;;;;;5026150;28;20297;-75
2021/11/21 07:05:02;;;;;;;17.63;11.87;;;8.80;99.90;;;;;;5026249;28;20288;-76
2021/11/21 07:07:30;;;;;;;19.00;12.50;;;8.80;99.90;;;;;;5026238;28;20250;-77
2021/11/21 07:09:57;;;;;;;17.60;12.90;;;8.80;99.90;;;;;;5026315;28;20237;-77
2021/11/21 07:12:24;;;;;;;17.63;12.37;;;8.80;99.90;;;;;;5025631;28;20213;-74
2021/11/21 07:14:53;;;;;;;16.63;12.57;;;8.80;99.90;;;;;;5024921;28;20244;-74
2021/11/21 07:17:20;;;;;;;16.87;11.97;;;8.80;99.90;;;;;;5025964;28;20225;-75
2021/11/21 07:19:47;;;;;;;16.47;11.70;;;8.80;99.90;;;;;;5026076;28;20208;-76
2021/11/21 07:22:14;;;;;;;15.57;11.37;;;8.80;99.90;;;;;;5025503;28;20299;-75
2021/11/21 07:24:47;;;;;;;18.13;12.37;;;8.80;99.90;;;;;;5025747;28;20251;-75
2021/11/21 07:27:16;;;;;;;15.57;12.07;;;8.90;99.90;;;;;;5025738;28;20193;-75
2021/11/21 07:29:43;;;;;;;17.43;10.97;;;8.90;99.90;;;;;;5025752;28;20266;-75
2021/11/21 07:32:13;;;;;;;15.00;11.93;;;8.90;99.90;;;;;;5025533;28;20245;-75
2021/11/21 07:34:40;;;;;;;16.47;12.60;;;8.90;99.90;;;;;;5025737;28;20327;-74
2021/11/21 07:37:10;;;;;;;16.10;11.87;;;8.80;99.90;;;;;;5026024;28;20209;-74
2021/11/21 07:39:37;;;;;;;14.17;11.00;;;8.80;99.90;;;;;;5025495;28;20209;-74
2021/11/21 07:42:06;;;;;;;15.90;11.77;;;8.80;99.90;;;;;;5025523;28;20988;-74
2021/11/21 07:44:33;;;;;;;15.53;12.13;;;8.80;99.90;;;;;;5025776;28;20288;-74
2021/11/21 07:47:00;;;;;;;19.37;12.03;;;8.70;99.90;;;;;;5025491;28;20647;-78
2021/11/21 07:49:27;;;;;;;16.33;11.77;;;8.80;99.90;;;;;;5025719;28;20224;-76
2021/11/21 07:51:53;;;;;;;16.93;12.17;;;8.70;99.90;;;;;;5025395;28;20209;-77
2021/11/21 07:54:32;;;;;;;17.03;12.47;;;8.60;99.90;;;;;;5025339;28;20575;-75
2021/11/21 07:57:07;;;;;;;18.90;12.80;;;8.70;99.90;;;;;;5025331;28;20312;-74
2021/11/21 07:59:34;;;;;;;17.33;12.17;;;8.60;99.90;;;;;;5025271;28;20278;-74
2021/11/21 08:02:01;;;;;;;18.40;12.30;;;8.60;99.90;;;;;;5025160;28;20323;-75
2021/11/21 08:04:28;;;;;;;21.60;12.97;;;8.50;99.90;;;;;;5025389;28;20212;-77
2021/11/21 08:06:55;;;;;;;23.00;14.33;;;8.60;99.90;;;;;;5025136;28;20697;-77
2021/11/21 08:09:22;;;;;;;19.53;13.13;;;8.50;99.90;;;;;;5025585;28;20213;-77
2021/11/21 08:11:50;;;;;;;21.20;13.30;;;8.50;99.90;;;;;;5025063;28;20295;-78
2021/11/21 08:14:19;;;;;;;21.47;14.03;;;8.40;99.90;;;;;;5025295;28;20243;-78
2021/11/21 08:17:00;;;;;;;19.90;13.10;;;8.40;99.90;;;;;;5025691;28;20624;-75
2021/11/21 08:19:30;;;;;;;20.93;12.83;;;8.40;99.90;;;;;;5025204;28;20296;-75
2021/11/21 08:21:57;;;;;;;21.50;13.60;;;8.40;99.90;;;;;;5025186;28;20208;-75
2021/11/21 08:24:24;;;;;;;23.00;13.03;;;8.30;99.90;;;;;;5025167;28;20209;-76
2021/11/21 08:27:13;;;;;;;21.57;12.87;;;8.30;99.90;;;;;;5025637;28;20209;-76
2021/11/21 08:29:42;;;;;;;22.43;13.23;;;8.30;99.90;;;;;;5028644;28;20927;-76
2021/11/21 08:32:09;;;;;;;23.30;14.03;;;8.30;99.90;;;;;;5028689;28;20685;-76
2021/11/21 08:34:37;;;;;;;23.93;13.43;;;8.30;99.90;;;;;;5028674;28;20271;-75
2021/11/21 08:37:04;;;;;;;23.07;13.23;;;8.20;99.90;;;;;;5028147;28;20762;-75
2021/11/21 08:39:33;;;;;;;24.97;14.37;;;8.30;99.90;;;;;;5028613;28;20295;-77
2021/11/21 08:42:02;;;;;;;24.67;14.07;;;8.30;99.90;;;;;;5028243;28;20291;-77
2021/11/21 08:44:31;;;;;;;25.17;13.83;;;8.20;99.90;;;;;;5028601;28;20212;-76
2021/11/21 08:47:00;;;;;;;23.80;13.20;;;8.20;99.90;;;;;;5028176;28;20244;-76
2021/11/21 08:49:27;;;;;;;23.73;14.50;;;8.20;99.90;;;;;;5028199;28;20296;-74
2021/11/21 08:52:00;;;;;;;22.93;13.77;;;8.20;99.90;;;;;;5028226;28;21149;-73
2021/11/21 08:54:33;;;;;;;22.27;12.77;;;8.30;99.90;;;;;;5027771;28;20268;-74
2021/11/21 08:57:00;;;;;;;22.67;12.83;;;8.30;99.90;;;;;;5028034;28;20288;-74
2021/11/21 08:59:27;;;;;;;20.83;12.80;;;8.30;99.90;;;;;;5028211;28;20642;-74
2021/11/21 09:01:54;;;;;;;19.77;13.37;;;8.30;99.90;;;;;;5027907;28;20243;-74
2021/11/21 09:04:23;;;;;;;20.90;12.80;;;8.30;99.90;;;;;;5027862;28;20232;-73
2021/11/21 09:07:01;;;;;;;20.97;13.13;;;8.40;99.90;;;;;;5027969;28;20258;-73
2021/11/21 09:09:44;;;;;;;21.63;13.10;;;8.40;99.90;;;;;;5028045;28;20288;-73
2021/11/21 09:12:20;;;;;;;20.80;12.83;;;8.40;99.90;;;;;;5027809;28;20215;-73
2021/11/21 09:14:47;;;;;;;23.57;13.73;;;8.30;99.90;;;;;;5027495;28;20235;-73
2021/11/21 09:17:14;;;;;;;21.33;13.13;;;8.30;99.90;;;;;;5027530;28;20323;-73
2021/11/21 09:19:42;;;;;;;25.63;14.43;;;8.30;99.90;;;;;;5028024;28;20255;-73
2021/11/21 09:22:09;;;;;;;23.33;14.13;;;8.20;99.90;;;;;;5027716;28;20232;-76
2021/11/21 09:24:36;;;;;;;24.07;14.13;;;8.20;99.90;;;;;;5027484;28;20664;-73
2021/11/21 09:27:03;;;;;;;27.43;15.10;;;8.30;99.90;;;;;;5027410;28;20667;-73
2021/11/21 09:29:30;;;;;;;26.60;15.37;;;8.30;99.90;;;;;;5027821;28;20292;-73
2021/11/21 09:31:57;;;;;;;27.47;15.17;;;8.30;99.90;;;;;;5027349;28;20240;-75
2021/11/21 09:34:26;;;;;;;28.67;14.47;;;8.30;99.90;;;;;;5027412;28;20283;-77
2021/11/21 09:36:54;;;;;;;31.80;18.03;;;8.20;99.90;;;;;;5027950;28;20212;-78
2021/11/21 09:39:21;;;;;;;29.87;16.10;;;8.20;99.90;;;;;;5027233;28;20300;-77
2021/11/21 09:41:48;;;;;;;26.10;15.97;;;8.30;99.90;;;;;;5027627;28;20255;-77
2021/11/21 09:44:15;;;;;;;24.87;13.73;;;8.20;99.90;;;;;;5027866;28;20292;-77
2021/11/21 09:46:42;;;;;;;25.03;14.57;;;8.20;99.90;;;;;;5027933;28;20212;-77
2021/11/21 09:49:10;;;;;;;28.07;15.30;;;8.20;99.90;;;;;;5027460;28;20300;-77
2021/11/21 09:51:37;;;;;;;25.50;15.87;;;8.30;99.90;;;;;;5028018;28;20341;-75
2021/11/21 09:54:07;;;;;;;25.53;14.93;;;8.30;99.90;;;;;;5026913;28;20267;-75
2021/11/21 09:56:33;;;;;;;24.67;14.70;;;8.40;99.90;;;;;;5027804;28;20209;-77
2021/11/21 09:59:00;;;;;;;20.63;13.70;;;8.30;99.90;;;;;;5027880;28;20332;-78
2021/11/21 10:01:35;;;;;;;22.27;13.77;;;8.40;99.90;;;;;;5027366;28;20295;-74
2021/11/21 10:04:03;;;;;;;21.13;13.70;;;8.50;99.90;;;;;;5027130;28;20236;-75
2021/11/21 10:06:32;;;;;;;21.40;13.00;;;8.50;99.90;;;;;;5027134;28;20295;-73
2021/11/21 10:09:00;;;;;;;21.10;13.90;;;8.50;99.90;;;;;;5027349;28;20208;-74
2021/11/21 10:11:28;;;;;;;18.57;12.00;;;8.50;99.90;;;;;;5023649;28;20324;-74
2021/11/21 10:14:03;;;;;;;19.90;13.03;;;8.50;99.90;;;;;;5023208;28;20754;-74
2021/11/21 10:16:31;;;;;;;20.70;13.20;;;8.60;99.90;;;;;;5023523;28;20696;-74
2021/11/21 10:19:03;;;;;;;21.07;13.20;;;8.60;99.90;;;;;;5023141;28;20248;-74
2021/11/21 10:21:39;;;;;;;17.60;12.67;;;8.60;99.90;;;;;;5022812;28;20293;-75
2021/11/21 10:24:21;;;;;;;18.27;12.83;;;8.50;99.90;;;;;;5022958;28;20687;-74
2021/11/21 10:27:02;;;;;;;17.27;12.60;;;8.50;99.90;;;;;;5023437;28;20701;-75
2021/11/21 10:29:31;;;;;;;20.70;14.00;;;8.60;99.90;;;;;;5023020;28;20315;-74
2021/11/21 10:32:03;;;;;;;19.60;13.33;;;8.60;99.90;;;;;;5022808;28;20315;-74
2021/11/21 10:34:30;;;;;;;18.83;12.67;;;8.60;99.90;;;;;;5022780;28;20256;-74
2021/11/21 10:37:07;;;;;;;20.40;13.70;;;8.60;99.90;;;;;;5022721;28;20249;-75
2021/11/21 10:39:34;;;;;;;18.90;13.33;;;8.60;99.90;;;;;;5023121;28;20189;-74
2021/11/21 10:42:04;;;;;;;18.83;12.90;;;8.70;99.90;;;;;;5022680;28;20216;-73
2021/11/21 10:44:31;;;;;;;17.63;12.77;;;8.60;99.90;;;;;;5022569;28;20827;-74
2021/11/21 10:46:59;;;;;;;17.13;11.90;;;8.70;99.90;;;;;;5022923;28;20300;-73
2021/11/21 10:49:34;;;;;;;15.50;12.03;;;8.70;99.90;;;;;;5022096;28;20236;-73
2021/11/21 10:52:13;;;;;;;19.47;12.67;;;8.70;99.90;;;;;;5022417;28;20216;-73
2021/11/21 10:54:46;;;;;;;15.47;12.30;;;8.70;99.90;;;;;;5022195;28;20282;-74
2021/11/21 10:57:19;;;;;;;15.43;11.70;;;8.70;99.90;;;;;;5022177;28;20243;-73
2021/11/21 10:59:53;;;;;;;15.90;12.73;;;8.70;99.90;;;;;;5022566;28;20193;-74
2021/11/21 11:02:23;;;;;;;16.57;12.30;;;8.80;99.90;;;;;;5022321;28;20779;-74
2021/11/21 11:05:14;;;;;;;15.80;12.80;;;8.80;99.90;;;;;;5023330;28;20212;-74
2021/11/21 11:07:52;;;;;;;15.77;12.17;;;8.80;99.90;;;;;;5022561;28;20255;-74
2021/11/21 11:10:30;;;;;;;17.10;12.87;;;8.80;99.90;;;;;;5022604;28;20292;-73
2021/11/21 11:13:03;;;;;;;16.80;12.47;;;8.90;99.90;;;;;;5006454;28;20205;-74
2021/11/21 11:15:31;;;;;;;16.90;12.60;;;8.90;99.90;;;;;;5002733;28;20799;-74
2021/11/21 11:17:58;;;;;;;13.20;11.80;;;9.00;99.90;;;;;;5003115;28;20301;-73
2021/11/21 11:20:28;;;;;;;14.90;12.07;;;8.90;99.90;;;;;;5003484;28;20300;-74
2021/11/21 11:22:58;;;;;;;17.87;13.63;;;9.00;99.90;;;;;;5002995;28;20222;-74
2021/11/21 11:25:30;;;;;;;14.77;11.70;;;9.00;99.90;;;;;;5003273;28;20633;-74
2021/11/21 11:28:03;;;;;;;12.07;10.77;;;9.00;99.90;;;;;;5003444;28;20197;-76
2021/11/21 11:30:33;;;;;;;13.93;11.33;;;9.00;99.90;;;;;;5003553;28;20297;-77
2021/11/21 11:33:08;;;;;;;13.47;11.30;;;9.10;99.90;;;;;;5002602;28;20790;-76
2021/11/21 11:35:37;;;;;;;14.07;10.40;;;9.10;99.90;;;;;;5002756;28;20233;-76
2021/11/21 11:38:23;;;;;;;14.83;11.10;;;9.10;99.90;;;;;;5003249;28;20205;-76
2021/11/21 11:40:56;;;;;;;10.93;9.53;;;9.20;99.90;;;;;;5003000;28;20568;-76
2021/11/21 11:43:36;;;;;;;16.37;13.20;;;9.10;99.90;;;;;;5003019;28;20194;-76
2021/11/21 11:46:28;;;;;;;12.67;10.50;;;9.10;99.90;;;;;;5002725;28;20197;-76
2021/11/21 11:49:01;;;;;;;12.27;10.23;;;9.20;99.90;;;;;;5003873;28;20212;-76
2021/11/21 11:51:53;;;;;;;13.63;10.77;;;9.20;99.90;;;;;;5002688;28;20202;-77
2021/11/21 11:54:28;;;;;;;12.77;10.60;;;9.20;99.90;;;;;;5002961;28;20243;-76
2021/11/21 11:56:59;;;;;;;11.63;10.33;;;9.10;99.90;;;;;;5002690;28;20233;-76
2021/11/21 11:59:37;;;;;;;16.20;11.80;;;9.10;99.90;;;;;;5002778;28;20194;-77
2021/11/21 12:02:12;;;;;;;15.73;12.13;;;9.10;99.90;;;;;;5001810;28;20241;-76
2021/11/21 12:04:54;;;;;;;13.47;10.87;;;9.10;99.90;;;;;;5002598;28;20227;-75
2021/11/21 12:07:26;;;;;;;11.77;10.17;;;9.00;99.90;;;;;;5002282;28;20262;-76
2021/11/21 12:09:59;;;;;;;12.80;10.07;;;9.00;99.90;;;;;;5002490;28;20226;-76
2021/11/21 12:12:53;;;;;;;12.70;10.67;;;9.00;99.90;;;;;;5002494;28;20237;-75
2021/11/21 12:15:54;;;;;;;12.87;10.57;;;9.00;99.90;;;;;;5002096;28;20248;-76
2021/11/21 12:18:41;;;;;;;15.07;10.60;;;9.10;99.90;;;;;;5002564;28;20918;-76
2021/11/21 12:21:08;;;;;;;13.70;10.67;;;9.10;99.90;;;;;;5002210;28;20337;-76
2021/11/21 12:24:18;;;;;;;12.93;10.53;;;9.10;99.90;;;;;;5002304;28;20275;-75
2021/11/21 12:26:45;;;;;;;13.10;10.33;;;9.10;99.90;;;;;;5002062;28;20201;-76
2021/11/21 12:29:31;;;;;;;13.63;11.30;;;9.20;99.90;;;;;;5002282;28;20210;-75
2021/11/21 12:32:25;;;;;;;14.70;10.53;;;9.20;99.90;;;;;;5002092;28;20229;-76
2021/11/21 12:34:52;;;;;;;13.57;10.63;;;9.20;99.90;;;;;;5002348;28;20785;-76
2021/11/21 12:37:35;;;;;;;14.10;10.17;;;9.20;99.90;;;;;;5001755;28;20328;-75
2021/11/21 12:40:17;;;;;;;12.37;10.37;;;9.20;99.90;;;;;;4999671;28;20209;-75
2021/11/21 12:42:45;;;;;;;15.53;10.87;;;9.20;99.90;;;;;;5002407;28;20645;-75
2021/11/21 12:45:16;;;;;;;14.70;9.83;;;9.20;99.90;;;;;;5001202;28;20567;-74
2021/11/21 12:47:52;;;;;;;12.97;9.80;;;9.20;99.90;;;;;;5001559;28;20249;-75
2021/11/21 12:50:23;;;;;;;12.87;9.80;;;9.20;99.90;;;;;;5001579;28;20408;-75
2021/11/21 12:53:01;;;;;;;12.40;10.17;;;9.30;99.90;;;;;;5001581;28;20205;-75